sensor_id;sensor_type;location;lat;lon;timestamp;temperature;humidity
27795;DHT22;15176;50.844;4.412;2022-11-24T00:00:00;11.90;99.90
27795;DHT22;15176;50.844;4.412;2022-11-24T00:02:27;12.00;99.90
27795;DHT22;15176;50.844;4.412;2022-11-24T00:04:53;12.00;99.90
27795;DHT22;15176;50.844;4.412;2022-11-24T00:07:18;11.90;99.90
27795;DHT22;15176;50.844;4.412;2022-11-24T00:09:44;11.90;99.90
27795;DHT22;15176;50.844;4.412;2022-11-24T00:12:10;12.00;99.90
27795;DHT22;15176;50.844;4.412;2022-11-24T00:14:39;12.20;99.90
27795;DHT22;15176;50.844;4.412;2022-11-24T00:17:04;12.50;99.90
27795;DHT22;15176;50.844;4.412;2022-11-24T00:19:30;12.60;99.90
27795;DHT22;15176;50.844;4.412;2022-11-24T00:21:57;12.20;99.90
27795;DHT22;15176;50.844;4.412;2022-11-24T00:24:23;12.40;99.90
27795;DHT22;15176;50.844;4.412;2022-11-24T00:26:48;12.50;99.90
27795;DHT22;15176;50.844;4.412;2022-11-24T00:29:14;12.30;99.90
27795;DHT22;15176;50.844;4.412;2022-11-24T00:31:46;11.90;99.90
27795;DHT22;15176;50.844;4.412;2022-11-24T00:34:13;12.00;99.90
27795;DHT22;15176;50.844;4.412;2022-11-24T00:36:40;12.00;99.90
27795;DHT22;15176;50.844;4.412;2022-11-24T00:39:11;12.20;99.90
27795;DHT22;15176;50.844;4.412;2022-11-24T00:41:37;12.20;99.90
27795;DHT22;15176;50.844;4.412;2022-11-24T00:44:04;12.20;99.90
27795;DHT22;15176;50.844;4.412;2022-11-24T00:46:30;11.90;99.90
27795;DHT22;15176;50.844;4.412;2022-11-24T00:48:56;11.70;99.90
27795;DHT22;15176;50.844;4.412;2022-11-24T00:51:24;12.00;99.90
27795;DHT22;15176;50.844;4.412;2022-11-24T00:53:57;12.10;99.90
27795;DHT22;15176;50.844;4.412;2022-11-24T00:56:24;12.30;99.90
27795;DHT22;15176;50.844;4.412;2022-11-24T00:58:50;12.00;99.90
27795;DHT22;15176;50.844;4.412;2022-11-24T01:01:22;12.20;99.90
27795;DHT22;15176;50.844;4.412;2022-11-24T01:03:49;11.90;99.90
27795;DHT22;15176;50.844;4.412;2022-11-24T01:06:17;11.80;99.90
27795;DHT22;15176;50.844;4.412;2022-11-24T01:08:44;11.90;99.90
27795;DHT22;15176;50.844;4.412;2022-11-24T01:13:37;11.90;99.90
27795;DHT22;15176;50.844;4.412;2022-11-24T01:16:03;11.90;99.90
27795;DHT22;15176;50.844;4.412;2022-11-24T01:18:29;12.20;99.90
27795;DHT22;15176;50.844;4.412;2022-11-24T01:20:54;12.40;99.90
27795;DHT22;15176;50.844;4.412;2022-11-24T01:23:20;12.40;99.90
27795;DHT22;15176;50.844;4.412;2022-11-24T01:25:46;12.70;99.90
27795;DHT22;15176;50.844;4.412;2022-11-24T01:28:12;12.20;99.90
27795;DHT22;15176;50.844;4.412;2022-11-24T01:30:38;12.30;99.90
27795;DHT22;15176;50.844;4.412;2022-11-24T01:33:04;12.00;99.90
27795;DHT22;15176;50.844;4.412;2022-11-24T01:35:29;12.00;99.90
27795;DHT22;15176;50.844;4.412;2022-11-24T01:37:55;12.30;99.90
27795;DHT22;15176;50.844;4.412;2022-11-24T01:40:21;12.20;99.90
27795;DHT22;15176;50.844;4.412;2022-11-24T01:42:49;11.80;99.90
27795;DHT22;15176;50.844;4.412;2022-11-24T01:45:37;11.70;99.90
27795;DHT22;15176;50.844;4.412;2022-11-24T01:48:20;11.70;99.90
27795;DHT22;15176;50.844;4.412;2022-11-24T01:50:51;11.70;99.90
27795;DHT22;15176;50.844;4.412;2022-11-24T01:53:21;11.90;99.90
27795;DHT22;15176;50.844;4.412;2022-11-24T01:55:47;11.90;99.90
27795;DHT22;15176;50.844;4.412;2022-11-24T01:58:18;12.00;99.90
27795;DHT22;15176;50.844;4.412;2022-11-24T02:00:45;11.80;99.90
27795;DHT22;15176;50.844;4.412;2022-11-24T02:03:17;11.80;99.90
27795;DHT22;15176;50.844;4.412;2022-11-24T02:05:55;12.00;99.90
27795;DHT22;15176;50.844;4.412;2022-11-24T02:11:14;12.00;99.90
27795;DHT22;15176;50.844;4.412;2022-11-24T02:13:41;12.00;99.90
27795;DHT22;15176;50.844;4.412;2022-11-24T02:16:10;11.90;99.90
27795;DHT22;15176;50.844;4.412;2022-11-24T02:18:37;11.80;99.90
27795;DHT22;15176;50.844;4.412;2022-11-24T02:21:04;11.70;99.90
27795;DHT22;15176;50.844;4.412;2022-11-24T02:26:13;11.70;99.90
27795;DHT22;15176;50.844;4.412;2022-11-24T02:28:45;11.70;99.90
27795;DHT22;15176;50.844;4.412;2022-11-24T02:31:11;11.60;99.90
27795;DHT22;15176;50.844;4.412;2022-11-24T02:33:38;11.50;99.90
27795;DHT22;15176;50.844;4.412;2022-11-24T02:36:04;11.60;99.90
27795;DHT22;15176;50.844;4.412;2022-11-24T02:38:31;11.60;99.90
27795;DHT22;15176;50.844;4.412;2022-11-24T02:40:59;11.50;99.90
27795;DHT22;15176;50.844;4.412;2022-11-24T02:43:29;11.80;99.90
27795;DHT22;15176;50.844;4.412;2022-11-24T02:45:57;12.00;99.90
27795;DHT22;15176;50.844;4.412;2022-11-24T02:48:22;11.90;99.90
27795;DHT22;15176;50.844;4.412;2022-11-24T02:50:48;12.00;99.90
27795;DHT22;15176;50.844;4.412;2022-11-24T02:53:14;12.00;99.90
27795;DHT22;15176;50.844;4.412;2022-11-24T02:55:39;11.90;99.90
27795;DHT22;15176;50.844;4.412;2022-11-24T02:58:05;11.70;99.90
27795;DHT22;15176;50.844;4.412;2022-11-24T03:00:31;11.60;99.90
27795;DHT22;15176;50.844;4.412;2022-11-24T03:02:57;11.70;99.90
27795;DHT22;15176;50.844;4.412;2022-11-24T03:05:22;11.80;99.90
27795;DHT22;15176;50.844;4.412;2022-11-24T03:07:49;11.70;99.90
27795;DHT22;15176;50.844;4.412;2022-11-24T03:10:16;11.50;99.90
27795;DHT22;15176;50.844;4.412;2022-11-24T03:12:42;11.40;99.90
27795;DHT22;15176;50.844;4.412;2022-11-24T03:15:08;11.50;99.90
27795;DHT22;15176;50.844;4.412;2022-11-24T03:17:34;11.20;99.90
27795;DHT22;15176;50.844;4.412;2022-11-24T03:20:00;11.20;99.90
27795;DHT22;15176;50.844;4.412;2022-11-24T03:22:27;11.20;99.90
27795;DHT22;15176;50.844;4.412;2022-11-24T03:24:52;11.30;99.90
27795;DHT22;15176;50.844;4.412;2022-11-24T03:27:18;11.40;99.90
27795;DHT22;15176;50.844;4.412;2022-11-24T03:29:44;11.70;99.90
27795;DHT22;15176;50.844;4.412;2022-11-24T03:32:09;11.70;99.90
27795;DHT22;15176;50.844;4.412;2022-11-24T03:34:35;11.70;99.90
27795;DHT22;15176;50.844;4.412;2022-11-24T03:37:01;11.70;99.90
27795;DHT22;15176;50.844;4.412;2022-11-24T03:39:26;11.50;99.90
27795;DHT22;15176;50.844;4.412;2022-11-24T03:41:52;11.10;99.90
27795;DHT22;15176;50.844;4.412;2022-11-24T03:44:18;11.10;99.90
27795;DHT22;15176;50.844;4.412;2022-11-24T03:46:43;11.00;99.90
27795;DHT22;15176;50.844;4.412;2022-11-24T03:49:09;11.10;99.90
27795;DHT22;15176;50.844;4.412;2022-11-24T03:51:35;11.30;99.90
27795;DHT22;15176;50.844;4.412;2022-11-24T03:54:01;11.30;99.90
27795;DHT22;15176;50.844;4.412;2022-11-24T03:56:27;11.50;99.90
27795;DHT22;15176;50.844;4.412;2022-11-24T03:58:52;11.20;99.90
27795;DHT22;15176;50.844;4.412;2022-11-24T04:01:18;11.10;99.90
27795;DHT22;15176;50.844;4.412;2022-11-24T04:03:44;11.00;99.90
27795;DHT22;15176;50.844;4.412;2022-11-24T04:06:10;11.00;99.90
27795;DHT22;15176;50.844;4.412;2022-11-24T04:08:35;11.10;99.90
27795;DHT22;15176;50.844;4.412;2022-11-24T04:11:02;11.30;99.90
27795;DHT22;15176;50.844;4.412;2022-11-24T04:13:27;11.30;99.90
27795;DHT22;15176;50.844;4.412;2022-11-24T04:15:54;11.30;99.90
27795;DHT22;15176;50.844;4.412;2022-11-24T04:18:20;11.00;99.90
27795;DHT22;15176;50.844;4.412;2022-11-24T04:20:49;11.10;99.90
27795;DHT22;15176;50.844;4.412;2022-11-24T04:23:15;10.90;99.90
27795;DHT22;15176;50.844;4.412;2022-11-24T04:25:40;10.80;99.90
27795;DHT22;15176;50.844;4.412;2022-11-24T04:28:08;11.00;99.90
27795;DHT22;15176;50.844;4.412;2022-11-24T04:30:34;11.00;99.90
27795;DHT22;15176;50.844;4.412;2022-11-24T04:33:00;10.70;99.90
27795;DHT22;15176;50.844;4.412;2022-11-24T04:35:26;10.70;99.90
27795;DHT22;15176;50.844;4.412;2022-11-24T04:37:52;10.70;99.90
27795;DHT22;15176;50.844;4.412;2022-11-24T04:40:18;10.60;99.90
27795;DHT22;15176;50.844;4.412;2022-11-24T04:42:52;10.50;99.90
27795;DHT22;15176;50.844;4.412;2022-11-24T04:45:18;10.50;99.90
27795;DHT22;15176;50.844;4.412;2022-11-24T04:47:44;10.60;99.90
27795;DHT22;15176;50.844;4.412;2022-11-24T04:50:10;10.70;99.90
27795;DHT22;15176;50.844;4.412;2022-11-24T04:52:36;10.70;99.90
27795;DHT22;15176;50.844;4.412;2022-11-24T04:55:01;10.70;99.90
27795;DHT22;15176;50.844;4.412;2022-11-24T04:57:27;10.40;99.90
27795;DHT22;15176;50.844;4.412;2022-11-24T04:59:54;10.40;99.90
27795;DHT22;15176;50.844;4.412;2022-11-24T05:02:20;10.20;99.90
27795;DHT22;15176;50.844;4.412;2022-11-24T05:04:46;10.40;99.90
27795;DHT22;15176;50.844;4.412;2022-11-24T05:07:15;10.50;99.90
27795;DHT22;15176;50.844;4.412;2022-11-24T05:09:41;10.50;99.90
27795;DHT22;15176;50.844;4.412;2022-11-24T05:12:27;10.30;99.90
27795;DHT22;15176;50.844;4.412;2022-11-24T05:15:00;10.20;99.90
27795;DHT22;15176;50.844;4.412;2022-11-24T05:17:30;10.20;99.90
27795;DHT22;15176;50.844;4.412;2022-11-24T05:19:56;10.10;99.90
27795;DHT22;15176;50.844;4.412;2022-11-24T05:22:22;10.10;99.90
27795;DHT22;15176;50.844;4.412;2022-11-24T05:24:48;9.90;99.90
27795;DHT22;15176;50.844;4.412;2022-11-24T05:27:14;9.90;99.90
27795;DHT22;15176;50.844;4.412;2022-11-24T05:29:39;10.10;99.90
27795;DHT22;15176;50.844;4.412;2022-11-24T05:32:05;10.20;99.90
27795;DHT22;15176;50.844;4.412;2022-11-24T05:34:31;10.20;99.90
27795;DHT22;15176;50.844;4.412;2022-11-24T05:36:59;10.10;99.90
27795;DHT22;15176;50.844;4.412;2022-11-24T05:39:35;10.10;99.90
27795;DHT22;15176;50.844;4.412;2022-11-24T05:42:01;9.90;99.90
27795;DHT22;15176;50.844;4.412;2022-11-24T05:44:46;10.00;99.90
27795;DHT22;15176;50.844;4.412;2022-11-24T05:47:12;10.30;99.90
27795;DHT22;15176;50.844;4.412;2022-11-24T05:49:38;10.30;99.90
27795;DHT22;15176;50.844;4.412;2022-11-24T05:52:04;10.10;99.90
27795;DHT22;15176;50.844;4.412;2022-11-24T05:54:29;10.40;99.90
27795;DHT22;15176;50.844;4.412;2022-11-24T05:56:56;10.20;99.90
27795;DHT22;15176;50.844;4.412;2022-11-24T05:59:22;10.30;99.90
27795;DHT22;15176;50.844;4.412;2022-11-24T06:01:48;10.30;99.90
27795;DHT22;15176;50.844;4.412;2022-11-24T06:04:13;10.60;99.90
27795;DHT22;15176;50.844;4.412;2022-11-24T06:06:39;10.40;99.90
27795;DHT22;15176;50.844;4.412;2022-11-24T06:09:05;10.50;99.90
27795;DHT22;15176;50.844;4.412;2022-11-24T06:11:31;10.60;99.90
27795;DHT22;15176;50.844;4.412;2022-11-24T06:13:57;10.40;99.90
27795;DHT22;15176;50.844;4.412;2022-11-24T06:16:24;10.20;99.90
27795;DHT22;15176;50.844;4.412;2022-11-24T06:18:50;10.20;99.90
27795;DHT22;15176;50.844;4.412;2022-11-24T06:21:16;10.20;99.90
27795;DHT22;15176;50.844;4.412;2022-11-24T06:23:42;10.20;99.90
27795;DHT22;15176;50.844;4.412;2022-11-24T06:26:08;10.20;99.90
27795;DHT22;15176;50.844;4.412;2022-11-24T06:28:34;10.40;99.90
27795;DHT22;15176;50.844;4.412;2022-11-24T06:31:04;10.60;99.90
27795;DHT22;15176;50.844;4.412;2022-11-24T06:33:31;10.70;99.90
27795;DHT22;15176;50.844;4.412;2022-11-24T06:36:09;10.80;99.90
27795;DHT22;15176;50.844;4.412;2022-11-24T06:38:36;10.90;99.90
27795;DHT22;15176;50.844;4.412;2022-11-24T06:41:04;10.80;99.90
27795;DHT22;15176;50.844;4.412;2022-11-24T06:43:31;10.90;99.90
27795;DHT22;15176;50.844;4.412;2022-11-24T06:45:57;11.10;99.90
27795;DHT22;15176;50.844;4.412;2022-11-24T06:48:23;11.00;99.90
27795;DHT22;15176;50.844;4.412;2022-11-24T06:50:50;11.00;99.90
27795;DHT22;15176;50.844;4.412;2022-11-24T06:53:16;10.80;99.90
27795;DHT22;15176;50.844;4.412;2022-11-24T06:55:42;10.50;99.90
27795;DHT22;15176;50.844;4.412;2022-11-24T06:58:09;10.40;99.90
27795;DHT22;15176;50.844;4.412;2022-11-24T07:00:36;10.20;99.90
27795;DHT22;15176;50.844;4.412;2022-11-24T07:03:02;10.60;99.90
27795;DHT22;15176;50.844;4.412;2022-11-24T07:05:27;10.90;99.90
27795;DHT22;15176;50.844;4.412;2022-11-24T07:07:53;11.30;99.90
27795;DHT22;15176;50.844;4.412;2022-11-24T07:10:19;11.20;99.90
27795;DHT22;15176;50.844;4.412;2022-11-24T07:12:44;10.90;99.90
27795;DHT22;15176;50.844;4.412;2022-11-24T07:15:10;10.80;99.90
27795;DHT22;15176;50.844;4.412;2022-11-24T07:17:37;10.60;99.90
27795;DHT22;15176;50.844;4.412;2022-11-24T07:20:07;10.70;99.90
27795;DHT22;15176;50.844;4.412;2022-11-24T07:22:36;10.50;99.90
27795;DHT22;15176;50.844;4.412;2022-11-24T07:25:02;10.30;99.90
27795;DHT22;15176;50.844;4.412;2022-11-24T07:27:35;10.30;99.90
27795;DHT22;15176;50.844;4.412;2022-11-24T07:30:01;10.40;99.90
27795;DHT22;15176;50.844;4.412;2022-11-24T07:32:28;10.50;99.90
27795;DHT22;15176;50.844;4.412;2022-11-24T07:34:54;10.30;99.90
27795;DHT22;15176;50.844;4.412;2022-11-24T07:37:20;10.60;99.90
27795;DHT22;15176;50.844;4.412;2022-11-24T07:39:45;11.00;99.90
27795;DHT22;15176;50.844;4.412;2022-11-24T07:42:11;11.00;99.90
27795;DHT22;15176;50.844;4.412;2022-11-24T07:44:37;11.00;99.90
27795;DHT22;15176;50.844;4.412;2022-11-24T07:47:03;10.90;99.90
27795;DHT22;15176;50.844;4.412;2022-11-24T07:49:29;10.50;99.90
27795;DHT22;15176;50.844;4.412;2022-11-24T07:51:54;10.50;99.90
27795;DHT22;15176;50.844;4.412;2022-11-24T07:54:20;10.80;99.90
27795;DHT22;15176;50.844;4.412;2022-11-24T07:56:49;10.80;99.90
27795;DHT22;15176;50.844;4.412;2022-11-24T07:59:15;10.50;99.90
27795;DHT22;15176;50.844;4.412;2022-11-24T08:01:40;10.40;99.90
27795;DHT22;15176;50.844;4.412;2022-11-24T08:04:08;10.30;99.90
27795;DHT22;15176;50.844;4.412;2022-11-24T08:06:33;10.40;99.90
27795;DHT22;15176;50.844;4.412;2022-11-24T08:08:59;10.50;99.90
27795;DHT22;15176;50.844;4.412;2022-11-24T08:11:25;10.30;99.90
27795;DHT22;15176;50.844;4.412;2022-11-24T08:13:51;10.40;99.90
27795;DHT22;15176;50.844;4.412;2022-11-24T08:16:18;10.60;99.90
27795;DHT22;15176;50.844;4.412;2022-11-24T08:18:52;10.70;99.90
27795;DHT22;15176;50.844;4.412;2022-11-24T08:21:19;10.90;99.90
27795;DHT22;15176;50.844;4.412;2022-11-24T08:23:45;10.90;99.90
27795;DHT22;15176;50.844;4.412;2022-11-24T08:26:14;10.70;99.90
27795;DHT22;15176;50.844;4.412;2022-11-24T08:28:42;10.70;99.90
27795;DHT22;15176;50.844;4.412;2022-11-24T08:31:14;10.60;99.90
27795;DHT22;15176;50.844;4.412;2022-11-24T08:33:41;10.70;99.90
27795;DHT22;15176;50.844;4.412;2022-11-24T08:36:09;10.70;99.90
27795;DHT22;15176;50.844;4.412;2022-11-24T08:38:35;10.80;99.90
27795;DHT22;15176;50.844;4.412;2022-11-24T08:41:03;10.90;99.90
27795;DHT22;15176;50.844;4.412;2022-11-24T08:43:30;10.90;99.90
27795;DHT22;15176;50.844;4.412;2022-11-24T08:46:01;10.90;99.90
27795;DHT22;15176;50.844;4.412;2022-11-24T08:48:27;11.30;99.90
27795;DHT22;15176;50.844;4.412;2022-11-24T08:50:53;11.10;99.90
27795;DHT22;15176;50.844;4.412;2022-11-24T08:53:22;11.00;99.90
27795;DHT22;15176;50.844;4.412;2022-11-24T08:55:48;10.90;99.90
27795;DHT22;15176;50.844;4.412;2022-11-24T08:58:14;11.00;99.90
27795;DHT22;15176;50.844;4.412;2022-11-24T09:00:45;11.10;99.90
27795;DHT22;15176;50.844;4.412;2022-11-24T09:03:12;11.10;99.90
27795;DHT22;15176;50.844;4.412;2022-11-24T09:05:38;11.30;99.90
27795;DHT22;15176;50.844;4.412;2022-11-24T09:08:04;11.20;99.90
27795;DHT22;15176;50.844;4.412;2022-11-24T09:10:29;11.30;99.90
27795;DHT22;15176;50.844;4.412;2022-11-24T09:12:55;11.40;99.90
27795;DHT22;15176;50.844;4.412;2022-11-24T09:15:21;11.30;99.90
27795;DHT22;15176;50.844;4.412;2022-11-24T09:17:47;11.40;99.90
27795;DHT22;15176;50.844;4.412;2022-11-24T09:20:12;11.30;99.90
27795;DHT22;15176;50.844;4.412;2022-11-24T09:22:38;11.50;99.90
27795;DHT22;15176;50.844;4.412;2022-11-24T09:25:06;11.70;99.90
27795;DHT22;15176;50.844;4.412;2022-11-24T09:27:57;12.00;99.90
27795;DHT22;15176;50.844;4.412;2022-11-24T09:30:24;12.80;99.90
27795;DHT22;15176;50.844;4.412;2022-11-24T09:32:54;13.40;99.90
27795;DHT22;15176;50.844;4.412;2022-11-24T09:35:21;13.90;99.90
27795;DHT22;15176;50.844;4.412;2022-11-24T09:37:46;14.60;99.90
27795;DHT22;15176;50.844;4.412;2022-11-24T09:40:16;15.40;99.90
27795;DHT22;15176;50.844;4.412;2022-11-24T09:42:57;15.80;99.90
27795;DHT22;15176;50.844;4.412;2022-11-24T09:48:29;16.80;99.90
27795;DHT22;15176;50.844;4.412;2022-11-24T09:50:58;17.20;99.90
27795;DHT22;15176;50.844;4.412;2022-11-24T09:53:39;17.80;99.90
27795;DHT22;15176;50.844;4.412;2022-11-24T09:56:23;18.00;99.90
27795;DHT22;15176;50.844;4.412;2022-11-24T09:58:53;18.30;99.90
27795;DHT22;15176;50.844;4.412;2022-11-24T10:01:32;18.90;99.90
27795;DHT22;15176;50.844;4.412;2022-11-24T10:04:00;18.90;99.90
27795;DHT22;15176;50.844;4.412;2022-11-24T10:07:13;18.90;99.90
27795;DHT22;15176;50.844;4.412;2022-11-24T10:10:03;19.40;99.90
27795;DHT22;15176;50.844;4.412;2022-11-24T10:12:52;19.60;99.90
27795;DHT22;15176;50.844;4.412;2022-11-24T10:15:43;20.30;97.80
27795;DHT22;15176;50.844;4.412;2022-11-24T10:21:46;20.70;96.10
27795;DHT22;15176;50.844;4.412;2022-11-24T10:24:26;20.70;95.60
27795;DHT22;15176;50.844;4.412;2022-11-24T10:27:01;20.60;94.90
27795;DHT22;15176;50.844;4.412;2022-11-24T10:29:41;20.70;94.10
27795;DHT22;15176;50.844;4.412;2022-11-24T10:32:21;19.90;95.20
27795;DHT22;15176;50.844;4.412;2022-11-24T10:34:48;20.20;94.90
27795;DHT22;15176;50.844;4.412;2022-11-24T10:37:39;20.20;94.90
27795;DHT22;15176;50.844;4.412;2022-11-24T10:40:27;20.40;94.60
27795;DHT22;15176;50.844;4.412;2022-11-24T10:42:56;20.90;93.70
27795;DHT22;15176;50.844;4.412;2022-11-24T10:45:22;21.10;93.20
27795;DHT22;15176;50.844;4.412;2022-11-24T10:47:50;21.20;92.90
27795;DHT22;15176;50.844;4.412;2022-11-24T10:50:30;21.30;92.60
27795;DHT22;15176;50.844;4.412;2022-11-24T11:01:27;22.20;90.50
27795;DHT22;15176;50.844;4.412;2022-11-24T11:03:58;22.10;90.00
27795;DHT22;15176;50.844;4.412;2022-11-24T11:06:27;22.30;88.30
27795;DHT22;15176;50.844;4.412;2022-11-24T11:11:32;21.80;87.10
27795;DHT22;15176;50.844;4.412;2022-11-24T11:14:00;22.00;87.50
27795;DHT22;15176;50.844;4.412;2022-11-24T11:16:35;22.10;87.90
27795;DHT22;15176;50.844;4.412;2022-11-24T11:19:04;22.10;89.00
27795;DHT22;15176;50.844;4.412;2022-11-24T11:21:36;22.20;89.90
27795;DHT22;15176;50.844;4.412;2022-11-24T11:24:05;22.00;87.80
27795;DHT22;15176;50.844;4.412;2022-11-24T11:26:37;22.00;85.90
27795;DHT22;15176;50.844;4.412;2022-11-24T11:31:33;20.00;92.40
27795;DHT22;15176;50.844;4.412;2022-11-24T11:36:38;21.20;90.30
27795;DHT22;15176;50.844;4.412;2022-11-24T11:39:06;21.10;89.10
27795;DHT22;15176;50.844;4.412;2022-11-24T11:41:41;21.30;90.40
27795;DHT22;15176;50.844;4.412;2022-11-24T11:46:40;22.10;87.70
27795;DHT22;15176;50.844;4.412;2022-11-24T11:49:10;21.60;88.00
27795;DHT22;15176;50.844;4.412;2022-11-24T11:57:15;22.90;81.40
27795;DHT22;15176;50.844;4.412;2022-11-24T12:00:15;23.20;78.70
27795;DHT22;15176;50.844;4.412;2022-11-24T12:05:49;22.30;85.40
27795;DHT22;15176;50.844;4.412;2022-11-24T12:08:25;22.20;84.00
27795;DHT22;15176;50.844;4.412;2022-11-24T12:11:03;21.60;87.30
27795;DHT22;15176;50.844;4.412;2022-11-24T12:22:12;21.70;84.50
27795;DHT22;15176;50.844;4.412;2022-11-24T12:26:13;20.90;88.20
27795;DHT22;15176;50.844;4.412;2022-11-24T12:36:51;19.70;93.80
27795;DHT22;15176;50.844;4.412;2022-11-24T12:39:34;20.00;92.10
27795;DHT22;15176;50.844;4.412;2022-11-24T12:42:29;19.80;92.80
27795;DHT22;15176;50.844;4.412;2022-11-24T12:47:45;19.10;94.00
27795;DHT22;15176;50.844;4.412;2022-11-24T12:50:22;20.20;93.80
27795;DHT22;15176;50.844;4.412;2022-11-24T12:53:13;21.00;91.00
27795;DHT22;15176;50.844;4.412;2022-11-24T12:55:42;20.80;90.70
27795;DHT22;15176;50.844;4.412;2022-11-24T13:01:30;20.90;88.90
27795;DHT22;15176;50.844;4.412;2022-11-24T13:07:08;20.90;90.20
27795;DHT22;15176;50.844;4.412;2022-11-24T13:09:35;20.70;90.20
27795;DHT22;15176;50.844;4.412;2022-11-24T13:12:11;20.70;89.30
27795;DHT22;15176;50.844;4.412;2022-11-24T13:14:39;20.90;89.30
27795;DHT22;15176;50.844;4.412;2022-11-24T13:17:31;21.20;89.40
27795;DHT22;15176;50.844;4.412;2022-11-24T13:20:35;20.90;87.80
27795;DHT22;15176;50.844;4.412;2022-11-24T13:23:04;19.80;91.80
27795;DHT22;15176;50.844;4.412;2022-11-24T13:25:32;20.20;91.60
27795;DHT22;15176;50.844;4.412;2022-11-24T13:28:00;20.70;90.70
27795;DHT22;15176;50.844;4.412;2022-11-24T13:47:01;16.80;99.70
27795;DHT22;15176;50.844;4.412;2022-11-24T13:49:44;17.10;99.90
27795;DHT22;15176;50.844;4.412;2022-11-24T13:55:00;17.10;99.90
27795;DHT22;15176;50.844;4.412;2022-11-24T13:57:34;17.10;99.90
27795;DHT22;15176;50.844;4.412;2022-11-24T14:00:03;17.50;99.30
27795;DHT22;15176;50.844;4.412;2022-11-24T14:02:29;17.40;99.90
27795;DHT22;15176;50.844;4.412;2022-11-24T14:04:57;17.00;99.90
27795;DHT22;15176;50.844;4.412;2022-11-24T14:07:26;16.50;99.90
27795;DHT22;15176;50.844;4.412;2022-11-24T14:09:53;16.50;99.90
27795;DHT22;15176;50.844;4.412;2022-11-24T14:12:21;16.10;99.90
27795;DHT22;15176;50.844;4.412;2022-11-24T14:15:22;16.30;99.90
27795;DHT22;15176;50.844;4.412;2022-11-24T14:17:51;16.40;99.90
27795;DHT22;15176;50.844;4.412;2022-11-24T14:20:22;16.10;99.90
27795;DHT22;15176;50.844;4.412;2022-11-24T14:22:50;15.90;99.90
27795;DHT22;15176;50.844;4.412;2022-11-24T14:25:25;15.40;99.90
27795;DHT22;15176;50.844;4.412;2022-11-24T14:27:52;14.80;99.90
27795;DHT22;15176;50.844;4.412;2022-11-24T14:30:23;14.90;99.90
27795;DHT22;15176;50.844;4.412;2022-11-24T14:32:59;14.70;99.90
27795;DHT22;15176;50.844;4.412;2022-11-24T14:35:32;14.70;99.90
27795;DHT22;15176;50.844;4.412;2022-11-24T14:38:03;14.70;99.90
27795;DHT22;15176;50.844;4.412;2022-11-24T14:40:49;14.80;99.90
27795;DHT22;15176;50.844;4.412;2022-11-24T14:43:28;14.80;99.90
27795;DHT22;15176;50.844;4.412;2022-11-24T14:48:51;15.30;99.90
27795;DHT22;15176;50.844;4.412;2022-11-24T14:51:31;15.10;99.90
27795;DHT22;15176;50.844;4.412;2022-11-24T14:54:04;15.50;99.90
27795;DHT22;15176;50.844;4.412;2022-11-24T14:56:35;15.50;99.90
27795;DHT22;15176;50.844;4.412;2022-11-24T14:59:19;15.50;99.90
27795;DHT22;15176;50.844;4.412;2022-11-24T15:01:45;15.50;99.90
27795;DHT22;15176;50.844;4.412;2022-11-24T15:04:21;14.90;99.90
27795;DHT22;15176;50.844;4.412;2022-11-24T15:07:25;15.30;99.90
27795;DHT22;15176;50.844;4.412;2022-11-24T15:09:56;15.40;99.90
27795;DHT22;15176;50.844;4.412;2022-11-24T15:15:03;15.10;99.90
27795;DHT22;15176;50.844;4.412;2022-11-24T15:17:31;15.30;99.90
27795;DHT22;15176;50.844;4.412;2022-11-24T15:20:08;14.90;99.90
27795;DHT22;15176;50.844;4.412;2022-11-24T15:22:43;15.10;99.90
27795;DHT22;15176;50.844;4.412;2022-11-24T15:25:30;15.30;99.90
27795;DHT22;15176;50.844;4.412;2022-11-24T15:28:18;14.70;99.90
27795;DHT22;15176;50.844;4.412;2022-11-24T15:30:52;14.50;99.90
27795;DHT22;15176;50.844;4.412;2022-11-24T15:33:20;15.10;99.90
27795;DHT22;15176;50.844;4.412;2022-11-24T15:35:48;15.10;99.90
27795;DHT22;15176;50.844;4.412;2022-11-24T15:38:15;15.10;99.90
27795;DHT22;15176;50.844;4.412;2022-11-24T15:40:43;15.00;99.90
27795;DHT22;15176;50.844;4.412;2022-11-24T15:43:27;15.10;99.90
27795;DHT22;15176;50.844;4.412;2022-11-24T15:45:54;14.60;99.90
27795;DHT22;15176;50.844;4.412;2022-11-24T15:48:20;14.50;99.90
27795;DHT22;15176;50.844;4.412;2022-11-24T15:50:47;14.40;99.90
27795;DHT22;15176;50.844;4.412;2022-11-24T15:53:20;14.60;99.90
27795;DHT22;15176;50.844;4.412;2022-11-24T15:55:46;14.80;99.90
27795;DHT22;15176;50.844;4.412;2022-11-24T15:58:15;14.60;99.90
27795;DHT22;15176;50.844;4.412;2022-11-24T16:00:42;14.50;99.90
27795;DHT22;15176;50.844;4.412;2022-11-24T16:03:08;14.30;99.90
27795;DHT22;15176;50.844;4.412;2022-11-24T16:05:36;14.60;99.90
27795;DHT22;15176;50.844;4.412;2022-11-24T16:08:13;14.40;99.90
27795;DHT22;15176;50.844;4.412;2022-11-24T16:10:39;14.50;99.90
27795;DHT22;15176;50.844;4.412;2022-11-24T16:13:05;15.00;99.90
27795;DHT22;15176;50.844;4.412;2022-11-24T16:15:31;15.20;99.90
27795;DHT22;15176;50.844;4.412;2022-11-24T16:17:57;15.30;99.90
27795;DHT22;15176;50.844;4.412;2022-11-24T16:20:23;15.60;99.90
27795;DHT22;15176;50.844;4.412;2022-11-24T16:22:48;15.50;99.90
27795;DHT22;15176;50.844;4.412;2022-11-24T16:25:15;15.70;99.90
27795;DHT22;15176;50.844;4.412;2022-11-24T16:27:41;15.20;99.90
27795;DHT22;15176;50.844;4.412;2022-11-24T16:30:08;15.30;99.90
27795;DHT22;15176;50.844;4.412;2022-11-24T16:32:35;15.00;99.90
27795;DHT22;15176;50.844;4.412;2022-11-24T16:35:01;15.00;99.90
27795;DHT22;15176;50.844;4.412;2022-11-24T16:37:26;14.60;99.90
27795;DHT22;15176;50.844;4.412;2022-11-24T16:39:52;14.90;99.90
27795;DHT22;15176;50.844;4.412;2022-11-24T16:42:24;15.20;99.90
27795;DHT22;15176;50.844;4.412;2022-11-24T16:44:53;14.80;99.90
27795;DHT22;15176;50.844;4.412;2022-11-24T16:47:19;14.90;99.90
27795;DHT22;15176;50.844;4.412;2022-11-24T16:49:45;14.70;99.90
27795;DHT22;15176;50.844;4.412;2022-11-24T16:52:13;14.00;99.90
27795;DHT22;15176;50.844;4.412;2022-11-24T16:54:39;13.40;99.90
27795;DHT22;15176;50.844;4.412;2022-11-24T16:57:05;13.60;99.90
27795;DHT22;15176;50.844;4.412;2022-11-24T16:59:32;13.60;99.90
27795;DHT22;15176;50.844;4.412;2022-11-24T17:02:00;13.60;99.90
27795;DHT22;15176;50.844;4.412;2022-11-24T17:04:32;14.00;99.90
27795;DHT22;15176;50.844;4.412;2022-11-24T17:06:58;13.90;99.90
27795;DHT22;15176;50.844;4.412;2022-11-24T17:09:23;13.70;99.90
27795;DHT22;15176;50.844;4.412;2022-11-24T17:11:49;13.80;99.90
27795;DHT22;15176;50.844;4.412;2022-11-24T17:14:15;13.80;99.90
27795;DHT22;15176;50.844;4.412;2022-11-24T17:16:41;13.70;99.90